Time;durP1;ratioP1;P1;durP2;ratioP2;P2;SDS_P1;SDS_P2;PMS_P1;PMS_P2;Temp;Humidity;BMP_temperature;BMP_pressure;BME280_temperature;BME280_humidity;BME280_pressure;Samples;Min_cycle;Max_cycle;Signal;HPM_P1;HPM_P2
2023/11/14 00:01:05;;;;;;;7.10;5.30;;;;;;;4.92;100.00;97009.09;1225216;75;2923043;-62
2023/11/14 00:03:38;;;;;;;6.15;4.25;;;;;;;4.67;100.00;97043.44;1225243;75;2924318;-65
2023/11/14 00:06:11;;;;;;;11.75;6.80;;;;;;;4.20;100.00;97057.38;1224519;75;2921888;-63
2023/11/14 00:08:44;;;;;;;11.45;6.50;;;;;;;4.57;100.00;97047.38;1225033;75;2932674;-64
2023/11/14 00:11:16;;;;;;;7.15;5.25;;;;;;;4.79;100.00;97047.22;1225656;75;2918420;-65
2023/11/14 00:13:52;;;;;;;9.95;5.10;;;;;;;4.62;100.00;97029.75;1225114;75;2920734;-63
2023/11/14 00:16:24;;;;;;;6.60;4.70;;;;;;;4.89;100.00;97047.97;1225082;75;2915351;-63
2023/11/14 00:18:57;;;;;;;7.85;5.35;;;;;;;4.71;100.00;97046.00;1224943;75;2918673;-64
2023/11/14 00:21:30;;;;;;;6.00;4.35;;;;;;;4.76;100.00;97044.66;1224899;75;2941574;-63
2023/11/14 00:24:03;;;;;;;5.80;4.40;;;;;;;4.98;100.00;97022.81;1225668;75;2917818;-64
2023/11/14 00:26:35;;;;;;;4.25;3.50;;;;;;;5.16;100.00;97039.06;1225505;75;2915988;-66
2023/11/14 00:29:11;;;;;;;5.20;4.00;;;;;;;5.04;100.00;97032.59;1225193;75;2911408;-64
2023/11/14 00:31:43;;;;;;;5.50;3.85;;;;;;;5.11;100.00;97055.97;1225039;75;2916556;-65
2023/11/14 00:34:16;;;;;;;12.10;7.85;;;;;;;4.56;100.00;97053.22;1225133;75;2919667;-62
2023/11/14 00:36:50;;;;;;;11.60;7.65;;;;;;;5.03;100.00;97047.38;1224215;75;2919804;-67
2023/11/14 00:39:27;;;;;;;8.65;5.60;;;;;;;5.24;100.00;97048.41;1224924;75;2912630;-64
2023/11/14 00:41:59;;;;;;;8.90;5.85;;;;;;;5.14;100.00;97033.34;1224327;75;2927970;-65
2023/11/14 00:44:42;;;;;;;7.75;4.70;;;;;;;5.07;100.00;97023.53;1225251;75;2916744;-63
2023/11/14 00:47:15;;;;;;;9.05;6.25;;;;;;;5.03;100.00;97011.38;1225463;75;2928793;-64
2023/11/14 00:49:47;;;;;;;7.70;5.25;;;;;;;5.15;100.00;97028.66;1225463;75;2911399;-63
2023/11/14 00:52:21;;;;;;;11.85;7.65;;;;;;;4.86;100.00;97016.34;1225011;75;2922299;-64
2023/11/14 00:54:53;;;;;;;9.45;6.60;;;;;;;5.18;100.00;97025.06;1225059;75;2917801;-62
2023/11/14 00:57:26;;;;;;;8.45;6.05;;;;;;;5.00;100.00;97029.28;1225104;75;2912875;-62
2023/11/14 01:00:01;;;;;;;8.40;5.60;;;;;;;4.96;100.00;97033.38;1224509;75;2912272;-66
2023/11/14 01:02:34;;;;;;;6.75;4.65;;;;;;;5.11;100.00;97039.69;1225166;75;2908882;-65
2023/11/14 01:05:08;;;;;;;10.25;6.95;;;;;;;4.64;100.00;97033.53;1224455;75;2919038;-62
2023/11/14 01:07:40;;;;;;;10.00;6.60;;;;;;;4.76;100.00;97017.53;1224547;75;2922316;-63
2023/11/14 01:10:14;;;;;;;8.70;6.20;;;;;;;4.82;100.00;97032.75;1224740;75;2918813;-65
2023/11/14 01:12:47;;;;;;;10.85;6.60;;;;;;;4.58;100.00;97024.47;1225039;75;2928477;-63
2023/11/14 01:15:22;;;;;;;8.80;6.00;;;;;;;4.74;100.00;97009.09;1225629;75;2916187;-65
2023/11/14 01:17:55;;;;;;;7.60;5.20;;;;;;;4.83;100.00;97000.97;1224819;75;2915990;-62
2023/11/14 01:20:28;;;;;;;6.75;4.65;;;;;;;4.84;100.00;96997.06;1224800;75;2922050;-64
2023/11/14 01:23:01;;;;;;;5.60;4.15;;;;;;;4.80;100.00;96999.91;1224731;75;2915360;-62
2023/11/14 01:25:33;;;;;;;4.95;3.80;;;;;;;4.74;100.00;97014.53;1224614;75;2939058;-65
2023/11/14 01:28:07;;;;;;;5.55;3.85;;;;;;;4.46;100.00;97003.69;1224196;75;2921422;-64
2023/11/14 01:30:42;;;;;;;6.35;4.10;;;;;;;4.44;100.00;97003.38;1224675;75;2918439;-64
2023/11/14 01:33:15;;;;;;;6.20;3.95;;;;;;;4.35;100.00;97006.06;1225474;75;2917065;-63
2023/11/14 01:35:47;;;;;;;8.10;5.20;;;;;;;4.35;100.00;97001.38;1224878;75;2913906;-64
2023/11/14 01:38:20;;;;;;;5.75;4.60;;;;;;;4.46;100.00;97017.22;1225066;75;2915677;-63
2023/11/14 01:40:53;;;;;;;7.60;4.85;;;;;;;4.32;100.00;97012.38;1225471;75;2917476;-65
2023/11/14 01:43:25;;;;;;;7.10;5.15;;;;;;;4.23;100.00;97005.00;1225957;75;2909650;-61
2023/11/14 01:46:01;;;;;;;6.30;4.75;;;;;;;4.10;100.00;97007.09;1225159;75;2917554;-63
2023/11/14 01:48:33;;;;;;;8.60;5.65;;;;;;;3.86;100.00;96998.75;1224257;75;2922120;-63
2023/11/14 01:51:07;;;;;;;8.60;6.55;;;;;;;3.87;100.00;96994.81;1225363;75;2917350;-63
2023/11/14 01:53:41;;;;;;;10.00;6.20;;;;;;;3.80;100.00;96988.50;1225594;75;2918697;-64
2023/11/14 01:56:15;;;;;;;6.95;5.45;;;;;;;3.89;100.00;96987.75;1225035;75;2921351;-63
2023/11/14 01:58:49;;;;;;;7.40;5.30;;;;;;;3.93;100.00;96998.47;1225003;75;2914988;-63
2023/11/14 02:01:27;;;;;;;9.75;5.95;;;;;;;4.01;100.00;96984.16;1226183;75;2928046;-66
2023/11/14 02:04:01;;;;;;;7.40;5.40;;;;;;;3.95;100.00;96969.72;1225042;75;2918705;-63
2023/11/14 02:06:33;;;;;;;8.00;5.85;;;;;;;3.88;100.00;96975.44;1224291;75;2927908;-63
2023/11/14 02:09:07;;;;;;;5.85;5.10;;;;;;;4.05;100.00;96989.47;1226317;75;2897899;-63
2023/11/14 02:11:40;;;;;;;6.55;5.00;;;;;;;4.15;100.00;96990.97;1225017;75;2925172;-62
2023/11/14 02:14:13;;;;;;;4.30;3.40;;;;;;;4.30;100.00;96988.44;1225029;75;2922209;-63
2023/11/14 02:16:55;;;;;;;6.10;4.50;;;;;;;4.05;100.00;96984.03;1225116;75;2924192;-63
2023/11/14 02:19:28;;;;;;;5.30;4.40;;;;;;;4.11;100.00;96984.19;1224951;75;2916453;-64
2023/11/14 02:22:01;;;;;;;5.25;4.75;;;;;;;4.16;100.00;96995.22;1224529;75;2922190;-66
2023/11/14 02:24:36;;;;;;;4.80;3.70;;;;;;;4.25;100.00;97013.44;1224465;75;2922693;-65
2023/11/14 02:27:12;;;;;;;5.60;3.70;;;;;;;4.18;100.00;97025.28;1224717;75;2923842;-65
2023/11/14 02:29:45;;;;;;;4.15;3.40;;;;;;;4.12;100.00;97015.53;1224522;75;2917013;-64
2023/11/14 02:32:18;;;;;;;5.05;3.40;;;;;;;3.95;100.00;97013.06;1224678;75;2925382;-64
2023/11/14 02:34:50;;;;;;;4.95;4.40;;;;;;;3.90;100.00;96994.69;1224307;75;2918393;-64
2023/11/14 02:37:24;;;;;;;4.55;3.85;;;;;;;4.09;100.00;96970.34;1223910;75;2924269;-66
2023/11/14 02:39:56;;;;;;;5.60;4.50;;;;;;;4.05;100.00;96976.66;1224596;75;2925278;-61
2023/11/14 02:42:32;;;;;;;5.65;5.00;;;;;;;3.79;100.00;96994.34;1224085;75;2923650;-66
2023/11/14 02:45:06;;;;;;;7.00;4.80;;;;;;;3.98;100.00;96990.50;1223963;75;2925980;-65
2023/11/14 02:47:39;;;;;;;4.25;3.75;;;;;;;3.96;100.00;96992.16;1224240;75;2920176;-63
2023/11/14 02:50:29;;;;;;;7.75;5.75;;;;;;;3.55;100.00;96989.44;1224218;75;2927497;-63
2023/11/14 02:53:03;;;;;;;8.10;5.90;;;;;;;3.92;100.00;96980.69;1223924;75;2917907;-63
2023/11/14 02:55:35;;;;;;;7.30;5.75;;;;;;;3.81;100.00;96994.66;1224641;75;2920804;-66
2023/11/14 02:58:11;;;;;;;5.35;4.25;;;;;;;3.99;100.00;96996.66;1223969;75;2918773;-66
2023/11/14 03:00:45;;;;;;;7.75;5.90;;;;;;;3.66;100.00;97002.59;1223614;75;2915969;-64
2023/11/14 03:03:18;;;;;;;7.40;5.90;;;;;;;3.82;100.00;96993.44;1224372;75;2926940;-66
2023/11/14 03:05:51;;;;;;;6.35;5.20;;;;;;;3.62;100.00;96980.31;1224810;75;2916422;-63
2023/11/14 03:08:24;;;;;;;8.70;5.95;;;;;;;3.58;100.00;96982.38;1224517;75;2921712;-66
2023/11/14 03:10:56;;;;;;;7.20;5.80;;;;;;;3.57;100.00;96994.41;1225144;75;2930513;-61
2023/11/14 03:13:32;;;;;;;6.50;5.30;;;;;;;3.65;100.00;96981.38;1224085;75;2916005;-65
2023/11/14 03:16:05;;;;;;;7.30;5.95;;;;;;;3.53;100.00;96982.97;1224946;75;2919516;-65
2023/11/14 03:18:38;;;;;;;6.85;5.45;;;;;;;3.66;100.00;96986.34;1224027;75;2922524;-65
2023/11/14 03:21:11;;;;;;;6.50;5.25;;;;;;;3.59;100.00;96978.50;1223657;75;2925901;-63
2023/11/14 03:23:43;;;;;;;7.25;5.50;;;;;;;3.68;100.00;96972.34;1224001;75;2922667;-62
2023/11/14 03:26:16;;;;;;;6.10;5.35;;;;;;;3.74;100.00;96967.88;1224331;75;2916682;-63
2023/11/14 03:28:51;;;;;;;6.70;4.10;;;;;;;3.93;100.00;96980.25;1224709;75;2918401;-62
2023/11/14 03:31:26;;;;;;;6.20;5.15;;;;;;;3.67;100.00;97000.63;1223462;75;2916883;-65
2023/11/14 03:33:59;;;;;;;5.15;4.05;;;;;;;3.71;100.00;97015.53;1225401;75;2920000;-64
2023/11/14 03:36:32;;;;;;;6.45;4.95;;;;;;;3.65;100.00;97021.97;1224593;75;2919294;-64
2023/11/14 03:39:04;;;;;;;6.05;4.60;;;;;;;3.78;100.00;97004.44;1224974;75;2916536;-63
2023/11/14 03:41:37;;;;;;;4.05;3.65;;;;;;;3.93;100.00;97003.88;1224711;75;2922273;-63
2023/11/14 03:44:13;;;;;;;7.05;4.75;;;;;;;3.70;100.00;96989.66;1224251;75;2927441;-62
2023/11/14 03:46:45;;;;;;;5.85;4.20;;;;;;;4.04;100.00;96985.22;1224220;75;2921388;-64
2023/11/14 03:49:18;;;;;;;3.75;3.20;;;;;;;4.13;100.00;96998.81;1224757;75;2922029;-67
2023/11/14 03:51:50;;;;;;;5.50;4.45;;;;;;;3.62;100.00;97013.53;1224488;75;2923017;-62
2023/11/14 03:54:23;;;;;;;6.65;4.45;;;;;;;3.86;100.00;97002.19;1224308;75;2923930;-63
2023/11/14 03:56:56;;;;;;;5.65;4.25;;;;;;;4.15;100.00;97004.53;1224035;75;2915764;-64
2023/11/14 03:59:31;;;;;;;4.35;3.40;;;;;;;4.14;100.00;97021.25;1225230;75;2921476;-63
2023/11/14 04:02:04;;;;;;;7.35;5.00;;;;;;;3.75;100.00;97024.28;1224229;75;2921852;-66
2023/11/14 04:04:36;;;;;;;6.40;5.05;;;;;;;3.96;100.00;97005.69;1224329;75;2925874;-65
2023/11/14 04:07:09;;;;;;;7.45;4.50;;;;;;;4.20;100.00;97000.47;1224245;75;2915974;-64
2023/11/14 04:09:40;;;;;;;5.65;3.60;;;;;;;4.16;100.00;97008.75;1223501;75;2922611;-65
2023/11/14 04:12:13;;;;;;;7.25;5.70;;;;;;;3.99;100.00;96988.53;1224590;75;2916901;-62
2023/11/14 04:14:48;;;;;;;6.05;4.65;;;;;;;4.30;100.00;96977.59;1224663;75;2925023;-64
2023/11/14 04:17:21;;;;;;;5.95;4.20;;;;;;;4.32;100.00;96983.34;1224621;75;2923186;-64
2023/11/14 04:19:54;;;;;;;4.95;3.65;;;;;;;4.37;100.00;96987.41;1224833;75;2920418;-65
2023/11/14 04:22:27;;;;;;;5.05;3.80;;;;;;;4.47;100.00;96991.63;1224607;75;2926372;-67
2023/11/14 04:24:59;;;;;;;5.00;3.35;;;;;;;4.61;100.00;96991.03;1224617;75;2926280;-65
2023/11/14 04:27:32;;;;;;;4.70;3.20;;;;;;;4.60;100.00;96989.53;1224349;75;2920588;-64
2023/11/14 04:30:10;;;;;;;5.80;3.65;;;;;;;4.45;100.00;96962.28;1224289;75;2920049;-65
2023/11/14 04:32:42;;;;;;;4.50;3.30;;;;;;;4.57;100.00;96987.72;1224286;75;2935122;-62
2023/11/14 04:35:15;;;;;;;3.50;2.85;;;;;;;4.67;100.00;96975.69;1224517;75;2924715;-64
2023/11/14 04:37:52;;;;;;;5.90;4.10;;;;;;;4.51;100.00;96957.00;1224202;75;2920191;-67
2023/11/14 04:40:24;;;;;;;4.55;3.40;;;;;;;4.70;100.00;96979.44;1224322;75;2924299;-61
2023/11/14 04:42:57;;;;;;;4.00;3.50;;;;;;;4.49;100.00;96979.13;1224446;75;2922161;-65
2023/11/14 04:45:32;;;;;;;4.55;3.95;;;;;;;4.63;100.00;96987.88;1224228;75;2929663;-63
2023/11/14 04:48:05;;;;;;;4.75;3.50;;;;;;;4.63;100.00;96975.06;1224116;75;2927210;-66
2023/11/14 04:50:38;;;;;;;4.85;3.50;;;;;;;4.79;100.00;96973.28;1224190;75;2923600;-64
2023/11/14 04:53:10;;;;;;;5.10;4.05;;;;;;;4.48;100.00;96974.91;1223675;75;2931830;-65
2023/11/14 04:55:43;;;;;;;6.30;4.00;;;;;;;4.80;100.00;96980.94;1223259;75;2923825;-63
2023/11/14 04:58:16;;;;;;;4.90;4.00;;;;;;;4.83;100.00;96992.84;1223334;75;2923145;-64
2023/11/14 05:00:52;;;;;;;6.30;4.40;;;;;;;4.97;100.00;96980.63;1223861;75;2924999;-63
2023/11/14 05:03:24;;;;;;;4.25;3.35;;;;;;;5.08;100.00;96984.38;1223072;75;2919335;-65
2023/11/14 05:05:57;;;;;;;5.10;3.95;;;;;;;4.75;100.00;96991.63;1223498;75;2923907;-66
2023/11/14 05:08:29;;;;;;;10.30;8.25;;;;;;;4.87;100.00;97007.75;1223696;75;2927932;-63
2023/11/14 05:11:02;;;;;;;14.55;11.95;;;;;;;5.20;100.00;97000.94;1223009;75;2926180;-63
2023/11/14 05:13:35;;;;;;;13.65;11.25;;;;;;;5.21;100.00;97016.75;1222988;75;2925197;-63
2023/11/14 05:16:12;;;;;;;8.25;6.40;;;;;;;4.73;100.00;97005.63;1222635;75;2929269;-63
2023/11/14 05:18:46;;;;;;;6.60;5.45;;;;;;;4.99;100.00;97019.66;1223238;75;2928188;-64
2023/11/14 05:21:19;;;;;;;6.35;5.15;;;;;;;4.90;100.00;96989.81;1222262;75;2940705;-64
2023/11/14 05:23:51;;;;;;;6.05;5.05;;;;;;;5.02;100.00;96969.91;1222213;75;2928896;-61
2023/11/14 05:26:24;;;;;;;4.80;4.25;;;;;;;5.07;100.00;96968.53;1222053;75;2924828;-63
2023/11/14 05:28:57;;;;;;;5.20;4.10;;;;;;;5.00;100.00;96963.44;1222412;75;2934296;-63
2023/11/14 05:31:32;;;;;;;9.75;5.10;;;;;;;4.93;100.00;96993.56;1223831;75;2927989;-63
2023/11/14 05:34:05;;;;;;;6.45;4.95;;;;;;;5.07;100.00;96998.38;1223695;75;2930074;-66
2023/11/14 05:36:40;;;;;;;4.70;3.65;;;;;;;5.32;100.00;96994.56;1222533;75;2925883;-62
2023/11/14 05:39:13;;;;;;;7.75;4.35;;;;;;;5.17;100.00;97002.59;1223054;75;2924220;-63
2023/11/14 05:41:45;;;;;;;8.30;5.55;;;;;;;5.03;100.00;96987.69;1223030;75;2926961;-62
2023/11/14 05:44:18;;;;;;;12.50;6.80;;;;;;;4.94;100.00;96985.00;1223124;75;2928944;-63
2023/11/14 05:46:53;;;;;;;12.00;8.00;;;;;;;4.82;100.00;96969.63;1223205;75;2921476;-63
2023/11/14 05:49:28;;;;;;;11.45;8.80;;;;;;;4.79;100.00;96959.72;1223126;75;2930661;-62
2023/11/14 05:52:00;;;;;;;11.35;7.75;;;;;;;4.86;100.00;96926.84;1223180;75;2935865;-63
2023/11/14 05:54:33;;;;;;;6.90;6.15;;;;;;;5.23;100.00;96924.03;1223431;75;2930767;-64
2023/11/14 05:57:06;;;;;;;6.55;5.30;;;;;;;5.28;100.00;96947.84;1223632;75;2932624;-64
2023/11/14 05:59:40;;;;;;;5.90;4.60;;;;;;;5.26;100.00;96971.97;1222926;75;2934205;-63
2023/11/14 06:02:15;;;;;;;9.70;6.85;;;;;;;5.01;100.00;96981.97;1222992;75;2929020;-63
2023/11/14 06:04:48;;;;;;;13.75;9.10;;;;;;;4.98;100.00;96979.41;1223081;75;2923145;-63
2023/11/14 06:07:21;;;;;;;20.75;11.25;;;;;;;5.24;100.00;96966.25;1223558;75;2925166;-63
2023/11/14 06:09:53;;;;;;;8.65;7.00;;;;;;;5.32;100.00;96998.03;1222801;75;2927097;-66
2023/11/14 06:12:27;;;;;;;22.50;13.90;;;;;;;5.09;100.00;96983.16;1223101;75;2935003;-65
2023/11/14 06:14:59;;;;;;;17.65;11.75;;;;;;;5.40;100.00;96992.28;1223014;75;2926564;-66
2023/11/14 06:17:36;;;;;;;16.10;9.80;;;;;;;5.22;100.00;96968.66;1222984;75;2933420;-61
2023/11/14 06:20:10;;;;;;;10.00;7.40;;;;;;;5.50;100.00;96972.03;1222974;75;2930169;-63
2023/11/14 06:22:43;;;;;;;7.85;6.25;;;;;;;5.48;100.00;96964.38;1222685;75;2933567;-64
2023/11/14 06:25:16;;;;;;;7.80;6.05;;;;;;;5.40;100.00;96973.28;1222840;75;2924301;-64
2023/11/14 06:27:49;;;;;;;7.80;5.20;;;;;;;5.32;100.00;96995.31;1223376;75;2925338;-62
2023/11/14 06:30:21;;;;;;;16.35;12.20;;;;;;;5.22;100.00;97033.78;1223079;75;2923608;-64
2023/11/14 06:32:57;;;;;;;11.15;7.85;;;;;;;5.13;100.00;97051.59;1223208;75;2930056;-63
2023/11/14 06:35:29;;;;;;;11.65;8.40;;;;;;;5.22;100.00;97044.63;1222968;75;2935315;-62
2023/11/14 06:38:02;;;;;;;9.70;7.30;;;;;;;5.17;100.00;97045.25;1222721;75;2928460;-62
2023/11/14 06:40:35;;;;;;;10.70;7.75;;;;;;;5.28;100.00;97021.13;1223532;75;2932443;-64
2023/11/14 06:43:08;;;;;;;8.60;6.60;;;;;;;5.45;100.00;96995.13;1223837;75;2916891;-65
2023/11/14 06:45:43;;;;;;;7.40;5.65;;;;;;;5.61;100.00;96998.72;1223739;75;2939564;-62
2023/11/14 06:48:19;;;;;;;8.85;5.75;;;;;;;5.45;100.00;97013.38;1224078;75;2920253;-60
2023/11/14 06:50:51;;;;;;;8.20;5.50;;;;;;;5.80;100.00;97008.28;1223709;75;2937332;-64
2023/11/14 06:53:24;;;;;;;7.10;5.00;;;;;;;5.80;100.00;97016.44;1223380;75;2925721;-63
2023/11/14 06:55:57;;;;;;;7.10;5.35;;;;;;;5.66;100.00;97020.56;1223199;75;2936636;-63
2023/11/14 06:58:30;;;;;;;22.60;12.50;;;;;;;5.55;100.00;97031.88;1223825;75;2926425;-63
2023/11/14 07:01:03;;;;;;;17.85;10.40;;;;;;;5.75;100.00;97036.06;1223067;75;2933051;-64
2023/11/14 07:03:39;;;;;;;14.85;10.75;;;;;;;5.63;100.00;97031.56;1223144;75;2919815;-64
2023/11/14 07:06:12;;;;;;;12.85;8.70;;;;;;;5.90;100.00;97044.31;1222477;75;2947509;-64
2023/11/14 07:08:44;;;;;;;29.00;11.65;;;;;;;5.64;100.00;97061.00;1222286;75;2931772;-66
2023/11/14 07:11:17;;;;;;;18.25;10.60;;;;;;;5.88;100.00;97071.94;1223299;75;2933277;-62
2023/11/14 07:13:50;;;;;;;18.15;12.35;;;;;;;5.73;100.00;97090.09;1214611;75;2933065;-66
2023/11/14 07:16:22;;;;;;;13.50;9.55;;;;;;;5.97;100.00;97079.34;1221370;75;2935981;-63
2023/11/14 07:18:57;;;;;;;18.35;10.85;;;;;;;5.76;100.00;97083.75;1223213;75;2931634;-64
2023/11/14 07:21:32;;;;;;;15.90;10.85;;;;;;;5.68;100.00;97080.59;1222842;75;2939272;-64
2023/11/14 07:24:05;;;;;;;12.15;8.95;;;;;;;6.10;100.00;97081.84;1222970;75;2921804;-65
2023/11/14 07:26:38;;;;;;;22.35;10.05;;;;;;;5.98;100.00;97091.69;1222678;75;2923188;-66
2023/11/14 07:29:11;;;;;;;17.05;10.55;;;;;;;6.06;100.00;97089.41;1222100;75;2953839;-64
2023/11/14 07:31:43;;;;;;;16.70;11.00;;;;;;;5.95;100.00;97101.50;1222602;75;2930352;-65
2023/11/14 07:34:19;;;;;;;14.35;8.95;;;;;;;6.01;100.00;97098.91;1222789;75;2929238;-65
2023/11/14 07:36:52;;;;;;;13.85;8.35;;;;;;;5.98;100.00;97099.84;1223908;75;2935261;-64
2023/11/14 07:39:25;;;;;;;18.40;11.00;;;;;;;6.09;100.00;97104.81;1223033;75;2938070;-66
2023/11/14 07:41:58;;;;;;;16.80;10.65;;;;;;;6.47;100.00;97098.75;1222746;75;2954472;-66
2023/11/14 07:44:31;;;;;;;11.50;8.60;;;;;;;6.58;100.00;97112.56;1221976;75;2932226;-63
2023/11/14 07:47:04;;;;;;;10.60;7.15;;;;;;;6.80;100.00;97116.97;1223293;75;2930780;-63
2023/11/14 07:49:42;;;;;;;11.35;6.20;;;;;;;6.91;100.00;97127.34;1223764;75;2926168;-64
2023/11/14 07:52:14;;;;;;;7.60;6.30;;;;;;;6.72;100.00;97130.16;1222006;75;2924939;-67
2023/11/14 07:54:47;;;;;;;8.40;5.75;;;;;;;6.98;100.00;97124.28;1221629;75;2932882;-66
2023/11/14 07:57:20;;;;;;;5.75;4.70;;;;;;;7.04;100.00;97146.91;1222767;75;2924454;-64
2023/11/14 07:59:52;;;;;;;4.50;3.65;;;;;;;7.18;100.00;97165.25;1222324;75;2929300;-63
2023/11/14 08:02:25;;;;;;;5.95;4.95;;;;;;;7.14;100.00;97177.53;1222398;75;2928253;-63
2023/11/14 08:05:00;;;;;;;8.85;6.10;;;;;;;7.02;100.00;97174.59;1223018;75;2924098;-64
2023/11/14 08:07:33;;;;;;;10.05;6.95;;;;;;;7.21;100.00;97198.94;1223383;75;2928553;-63
2023/11/14 08:10:06;;;;;;;11.90;7.65;;;;;;;7.34;100.00;97198.72;1223056;75;2931401;-65
2023/11/14 08:12:39;;;;;;;9.80;6.35;;;;;;;7.36;100.00;97202.50;1221602;75;2931274;-64
2023/11/14 08:15:12;;;;;;;10.30;6.50;;;;;;;7.51;100.00;97196.34;1223733;75;2930408;-65
2023/11/14 08:17:45;;;;;;;9.30;6.95;;;;;;;7.63;100.00;97193.34;1222898;75;2940201;-62
2023/11/14 08:20:20;;;;;;;9.35;6.85;;;;;;;7.90;100.00;97200.53;1224547;75;2875901;-63
2023/11/14 08:22:54;;;;;;;10.60;7.90;;;;;;;7.55;100.00;97224.91;1223451;75;2928698;-65
2023/11/14 08:25:27;;;;;;;11.95;7.15;;;;;;;7.93;100.00;97230.78;1223277;75;2925839;-60
2023/11/14 08:27:59;;;;;;;13.35;8.65;;;;;;;8.02;100.00;97222.53;1223019;75;2923254;-63
2023/11/14 08:30:32;;;;;;;11.10;7.65;;;;;;;8.09;100.00;97246.69;1223651;75;2922863;-64
2023/11/14 08:33:04;;;;;;;13.10;9.75;;;;;;;7.97;100.00;97255.91;1223113;75;2928152;-63
2023/11/14 08:35:40;;;;;;;14.40;8.45;;;;;;;8.19;100.00;97269.91;1223458;75;2929759;-65
2023/11/14 08:38:13;;;;;;;16.20;9.30;;;;;;;8.00;100.00;97291.13;1223773;75;2940349;-66
2023/11/14 08:40:46;;;;;;;15.30;9.95;;;;;;;8.19;100.00;97305.38;1223427;75;2918914;-61
2023/11/14 08:43:20;;;;;;;15.60;10.15;;;;;;;8.38;100.00;97308.69;1221569;75;2931355;-64
2023/11/14 08:45:52;;;;;;;12.70;9.10;;;;;;;8.60;100.00;97319.25;1222846;75;2927678;-62
2023/11/14 08:48:25;;;;;;;14.40;8.50;;;;;;;8.66;100.00;97339.22;1222423;75;2924503;-64
2023/11/14 08:51:00;;;;;;;12.35;8.15;;;;;;;8.93;100.00;97351.81;1223439;75;2937818;-65
2023/11/14 08:53:33;;;;;;;15.80;8.90;;;;;;;9.00;100.00;97347.22;1223926;75;2921096;-65
2023/11/14 08:56:06;;;;;;;15.10;8.80;;;;;;;8.83;100.00;97344.94;1222285;75;2923236;-63
2023/11/14 08:58:39;;;;;;;13.75;8.15;;;;;;;8.91;100.00;97340.59;1222232;75;2933004;-65
2023/11/14 09:01:14;;;;;;;13.40;8.45;;;;;;;8.90;100.00;97332.91;1222861;75;2926853;-62
2023/11/14 09:03:47;;;;;;;12.05;7.85;;;;;;;9.50;100.00;97309.69;1222208;75;2917250;-65
2023/11/14 09:06:24;;;;;;;15.40;7.50;;;;;;;9.81;100.00;97292.69;1222937;75;2922504;-64
2023/11/14 09:08:56;;;;;;;10.55;7.25;;;;;;;10.07;100.00;97274.81;1223284;75;2925766;-63
2023/11/14 09:11:29;;;;;;;16.15;7.55;;;;;;;10.54;100.00;97257.13;1222786;75;2925005;-62
2023/11/14 09:14:02;;;;;;;9.30;6.15;;;;;;;10.76;100.00;97228.44;1222941;75;2928402;-63
2023/11/14 09:16:34;;;;;;;8.10;6.15;;;;;;;11.09;100.00;97195.03;1224004;75;2921689;-62
2023/11/14 09:19:07;;;;;;;5.75;4.55;;;;;;;11.57;100.00;97190.72;1206362;75;4183956;-63
2023/11/14 09:21:42;;;;;;;7.70;5.15;;;;;;;11.83;100.00;97217.97;1223307;75;2934138;-64
2023/11/14 09:24:15;;;;;;;7.00;4.50;;;;;;;11.85;100.00;97202.53;1223679;75;2912457;-64
2023/11/14 09:26:48;;;;;;;9.10;4.90;;;;;;;12.01;100.00;97200.34;1223057;75;2923900;-65
2023/11/14 09:29:20;;;;;;;8.95;5.75;;;;;;;11.62;100.00;97211.97;1222362;75;2924030;-66
2023/11/14 09:31:55;;;;;;;11.00;6.15;;;;;;;11.43;100.00;97217.13;1222130;75;2926129;-65
2023/11/14 09:34:27;;;;;;;9.35;6.40;;;;;;;11.87;100.00;97221.28;1222422;83;2922738;-63
2023/11/14 09:37:04;;;;;;;7.55;5.25;;;;;;;12.11;100.00;97229.78;1223266;75;2923236;-66
2023/11/14 09:39:36;;;;;;;13.45;6.65;;;;;;;12.11;100.00;97249.00;1222128;75;2936684;-65
2023/11/14 09:42:10;;;;;;;15.75;6.35;;;;;;;12.58;100.00;97267.78;1222311;75;2921161;-64
2023/11/14 09:44:42;;;;;;;12.05;6.40;;;;;;;12.68;100.00;97257.31;1222868;75;2930026;-65
2023/11/14 09:47:18;;;;;;;12.60;8.00;;;;;;;12.00;100.00;97262.72;1217072;75;3328335;-62
2023/11/14 09:49:51;;;;;;;10.05;7.75;;;;;;;12.31;100.00;97263.75;1223675;75;2920097;-61
2023/11/14 09:52:27;;;;;;;15.85;8.40;;;;;;;12.31;100.00;97247.28;1224211;75;2923290;-64
2023/11/14 09:55:01;;;;;;;14.55;10.10;;;;;;;12.33;100.00;97236.56;1223671;75;2924220;-63
2023/11/14 09:57:37;;;;;;;10.00;6.95;;;;;;;12.71;97.80;97237.06;1222468;75;2931484;-64
2023/11/14 10:00:13;;;;;;;13.85;6.50;;;;;;;13.37;93.77;97245.72;1223270;75;2920647;-64
2023/11/14 10:02:46;;;;;;;10.75;6.30;;;;;;;12.58;96.12;97215.63;1223098;75;2932771;-64
2023/11/14 10:05:18;;;;;;;13.95;6.85;;;;;;;12.45;96.29;97201.63;1223821;75;2918607;-62
2023/11/14 10:07:54;;;;;;;8.20;5.25;;;;;;;13.11;92.93;97210.31;1223833;75;2928097;-66
2023/11/14 10:10:27;;;;;;;9.90;6.10;;;;;;;12.98;94.56;97208.06;1224194;75;2923652;-63
2023/11/14 10:12:59;;;;;;;7.95;5.70;;;;;;;13.51;94.30;97202.69;1220990;75;2957182;-64
2023/11/14 10:15:33;;;;;;;8.05;5.20;;;;;;;15.11;87.09;97194.28;1222985;75;2936719;-65
2023/11/14 10:18:07;;;;;;;10.60;6.45;;;;;;;15.51;74.63;97208.34;1224520;75;2919125;-65
2023/11/14 10:20:43;;;;;;;12.00;6.50;;;;;;;15.64;74.14;97208.44;1223174;75;2924555;-64
2023/11/14 10:23:18;;;;;;;11.80;7.10;;;;;;;15.81;73.93;97202.00;1223635;75;2924785;-63
2023/11/14 10:25:51;;;;;;;13.50;7.45;;;;;;;16.68;73.30;97218.28;1223854;75;2927166;-67
2023/11/14 10:28:24;;;;;;;14.50;7.65;;;;;;;16.90;73.41;97200.56;1223096;75;2927461;-65
2023/11/14 10:30:59;;;;;;;11.05;7.35;;;;;;;16.31;75.17;97189.47;1223481;75;2932335;-65
2023/11/14 10:33:43;;;;;;;12.55;7.10;;;;;;;15.76;76.07;97187.00;1222553;75;2928449;-64
2023/11/14 10:36:15;;;;;;;8.90;7.00;;;;;;;16.32;74.64;97180.66;1223020;75;2930392;-62
2023/11/14 10:39:07;;;;;;;9.50;6.15;;;;;;;17.60;71.05;97180.88;1222469;75;2925563;-63
2023/11/14 10:41:40;;;;;;;11.35;6.20;;;;;;;16.29;73.83;97180.97;1223775;75;2924927;-65
2023/11/14 10:44:15;;;;;;;11.90;6.25;;;;;;;16.52;72.56;97171.03;1222849;75;2912135;-65
2023/11/14 10:46:55;;;;;;;12.40;7.05;;;;;;;16.81;71.78;97168.56;1222854;75;2945652;-65
2023/11/14 10:49:31;;;;;;;11.55;6.55;;;;;;;16.28;71.76;97185.00;1222981;75;2922455;-67
2023/11/14 10:52:04;;;;;;;9.85;5.75;;;;;;;15.94;71.19;97186.22;1223218;67;2928420;-67
2023/11/14 10:54:40;;;;;;;8.75;4.80;;;;;;;15.81;69.93;97179.91;1223640;75;2922748;-66
2023/11/14 10:57:16;;;;;;;7.15;4.30;;;;;;;16.52;69.40;97178.56;1221736;75;2922752;-62
2023/11/14 10:59:49;;;;;;;7.85;3.80;;;;;;;16.47;68.23;97188.44;1223328;75;2931535;-65
2023/11/14 11:02:22;;;;;;;6.95;3.95;;;;;;;17.13;66.88;97190.59;1224000;75;2927972;-64
2023/11/14 11:04:56;;;;;;;5.15;3.20;;;;;;;16.78;66.20;97205.53;1223667;75;2923397;-65
2023/11/14 11:07:28;;;;;;;6.35;3.05;;;;;;;17.10;66.50;97213.78;1222860;75;2924651;-67
2023/11/14 11:10:04;;;;;;;6.25;2.90;;;;;;;18.55;62.62;97224.38;1224244;75;2924444;-63
2023/11/14 11:12:40;;;;;;;5.05;2.80;;;;;;;18.72;62.29;97225.44;1224593;75;2913578;-63
2023/11/14 11:15:14;;;;;;;5.65;2.90;;;;;;;18.69;61.37;97221.00;1223674;75;2919558;-65
2023/11/14 11:17:48;;;;;;;3.75;2.30;;;;;;;18.19;61.70;97216.63;1223900;75;2923692;-65
2023/11/14 11:20:33;;;;;;;5.80;2.30;;;;;;;19.41;59.49;97203.00;1224511;75;2909592;-63
2023/11/14 11:23:10;;;;;;;6.30;2.50;;;;;;;19.62;58.63;97197.34;1224314;75;2861754;-63
2023/11/14 11:25:48;;;;;;;4.20;2.25;;;;;;;20.06;55.94;97196.59;1222594;75;2928066;-65
2023/11/14 11:28:36;;;;;;;3.20;2.20;;;;;;;19.26;57.66;97195.31;1222576;83;2927320;-64
2023/11/14 11:31:14;;;;;;;4.50;2.40;;;;;;;20.98;55.02;97183.53;1223372;75;2924962;-64
2023/11/14 11:33:48;;;;;;;4.20;2.10;;;;;;;21.24;52.97;97173.28;1224364;75;2925023;-62
2023/11/14 11:36:36;;;;;;;7.70;2.45;;;;;;;20.68;55.32;97150.91;1223230;75;2916686;-63
2023/11/14 11:39:10;;;;;;;3.75;1.80;;;;;;;21.29;53.69;97133.38;1222166;75;2926362;-65
2023/11/14 11:42:01;;;;;;;5.30;2.25;;;;;;;20.32;55.39;97137.91;1223520;75;2932990;-68
2023/11/14 11:44:44;;;;;;;4.50;2.15;;;;;;;18.84;59.22;97137.19;1223592;75;2916039;-67